Thea — 2IOP7 — position and weather

sailwx.info

Track history (hours):
 
Tides and Currents Weather Stations Pressure Air Temp Water Temp Dewpoint Dewpoint Depression Visibility Wind Speed Wind Dir Waves Ship Positions

Thea

Last reported at 2017-Oct-16 11:43 UTC. Time now 2017-Oct-19 11:26 UTC.
Position N 38°51' E 001°28'.

Length 25 m.

MMSI: 235111506.

Date/timePositionNaut miles runAvg speedWind from/ knotsBaromVisibWave heightAir tempDewpointWater temp
2017-Oct-16 11:43N 38°51' E 001°28'2 8.2
2017-Oct-16 11:29N 38°53' E 001°29'6 0.3
2017-Oct-15 14:46N 38°58' E 001°33'54 1.9
2017-Oct-14 10:34N 39°27' E 002°31'1 8.0
2017-Oct-14 10:29N 39°28' E 002°32'4 8.0
2017-Oct-14 10:00N 39°30' E 002°35'4 7.5
2017-Oct-14 09:30N 39°33' E 002°38'1 1.4
2017-Oct-14 08:59N 39°34' E 002°38'0 0.0
2017-Oct-14 08:29N 39°34' E 002°38'0 0.0
2017-Oct-14 07:59N 39°34' E 002°38'0 0.0
2017-Oct-14 07:29N 39°34' E 002°38'0 0.0
2017-Oct-14 06:59N 39°34' E 002°38'0 0.0
2017-Oct-14 06:29N 39°34' E 002°38'0 0.0
2017-Oct-14 05:59N 39°34' E 002°38'0 0.0
2017-Oct-14 05:29N 39°34' E 002°38'0 0.0
2017-Oct-14 04:59N 39°34' E 002°38'0 0.0
2017-Oct-14 04:29N 39°34' E 002°38'0 0.0
2017-Oct-14 03:59N 39°34' E 002°38'0 0.0
2017-Oct-14 03:29N 39°34' E 002°38'0 0.0
2017-Oct-14 02:59N 39°34' E 002°38'0 0.0
2017-Oct-14 02:29N 39°34' E 002°38'0 0.0
2017-Oct-14 01:59N 39°34' E 002°38'0 0.0
2017-Oct-14 01:29N 39°34' E 002°38'0 0.0
2017-Oct-14 00:59N 39°34' E 002°38'0 0.0
2017-Oct-14 00:29N 39°34' E 002°38'0 0.0
2017-Oct-13 23:59N 39°34' E 002°38'0 0.0
2017-Oct-13 23:29N 39°34' E 002°38'0 0.0
2017-Oct-13 22:59N 39°34' E 002°38'0 0.0
2017-Oct-13 22:28N 39°34' E 002°38'0 0.0
2017-Oct-13 21:58N 39°34' E 002°38'0 0.0
2017-Oct-13 21:28N 39°34' E 002°38'0 0.0
2017-Oct-13 20:58N 39°34' E 002°38'0 0.0
2017-Oct-13 20:28N 39°34' E 002°38'0 0.0
2017-Oct-13 19:58N 39°34' E 002°38'0 0.0
2017-Oct-13 19:28N 39°34' E 002°38'0 0.0
2017-Oct-13 19:00N 39°34' E 002°38'0 0.0
2017-Oct-13 18:28N 39°34' E 002°38'0 0.0
2017-Oct-13 17:58N 39°34' E 002°38'0 0.0
2017-Oct-13 17:28N 39°34' E 002°38'0 0.0
2017-Oct-13 16:58N 39°34' E 002°38'0 0.0
2017-Oct-13 16:28N 39°34' E 002°38'0 0.0
2017-Oct-13 15:58N 39°34' E 002°38'0 0.0
2017-Oct-13 15:30N 39°34' E 002°38'0 0.0
2017-Oct-13 14:58N 39°34' E 002°38'0 0.0
2017-Oct-13 14:28N 39°34' E 002°38'0 0.0
2017-Oct-13 13:58N 39°34' E 002°38'0 0.0
2017-Oct-13 13:28N 39°34' E 002°38'0 0.0
2017-Oct-13 12:58N 39°34' E 002°38'0 0.0
2017-Oct-13 12:28N 39°34' E 002°38'0 0.0
2017-Oct-13 11:58N 39°34' E 002°38'0 0.0
2017-Oct-13 11:28N 39°34' E 002°38'0 0.0
2017-Oct-13 10:58N 39°34' E 002°38'0 0.0
2017-Oct-13 10:28N 39°34' E 002°38'0 0.0
2017-Oct-13 09:58N 39°34' E 002°38'0 0.0
2017-Oct-13 09:25N 39°34' E 002°38'0 0.0
2017-Oct-13 08:58N 39°34' E 002°38'0 0.0
2017-Oct-13 08:28N 39°34' E 002°38'0 0.0
2017-Oct-13 07:58N 39°34' E 002°38'0 0.0
2017-Oct-13 07:28N 39°34' E 002°38'0 0.0
2017-Oct-13 06:58N 39°34' E 002°38'0 0.0
2017-Oct-13 06:28N 39°34' E 002°38'0 0.0
2017-Oct-13 05:55N 39°34' E 002°38'0 0.0
2017-Oct-13 05:28N 39°34' E 002°38'0 0.0
2017-Oct-13 04:58N 39°34' E 002°38'0 0.0
2017-Oct-13 04:28N 39°34' E 002°38'0 0.0
2017-Oct-13 03:58N 39°34' E 002°38'0 0.0
2017-Oct-13 03:28N 39°34' E 002°38'0 0.0
2017-Oct-13 02:58N 39°34' E 002°38'0 0.0
2017-Oct-13 02:28N 39°34' E 002°38'0 0.0
2017-Oct-13 01:58N 39°34' E 002°38'0 0.0
2017-Oct-13 01:28N 39°34' E 002°38'0 0.0
2017-Oct-13 00:58N 39°34' E 002°38'0 0.0
2017-Oct-13 00:28N 39°34' E 002°38'0 0.0
2017-Oct-12 23:58N 39°34' E 002°38'0 0.0
2017-Oct-12 23:28N 39°34' E 002°38'0 0.0
2017-Oct-12 22:58N 39°34' E 002°38'0 0.0
2017-Oct-12 22:28N 39°34' E 002°38'0 0.0
2017-Oct-12 21:58N 39°34' E 002°38'0 0.0
2017-Oct-12 21:28N 39°34' E 002°38'0 0.0
2017-Oct-12 20:58N 39°34' E 002°38'0 0.0
2017-Oct-12 20:28N 39°34' E 002°38'0 0.0
2017-Oct-12 19:58N 39°34' E 002°38'0 0.0
2017-Oct-12 19:28N 39°34' E 002°38'0 0.0
2017-Oct-12 18:58N 39°34' E 002°38'0 0.0
2017-Oct-12 18:28N 39°34' E 002°38'0 0.0
2017-Oct-12 17:58N 39°34' E 002°38'0 0.0
2017-Oct-12 17:28N 39°34' E 002°38'0 0.0
2017-Oct-12 16:58N 39°34' E 002°38'0 0.0
2017-Oct-12 16:28N 39°34' E 002°38'0 0.0
2017-Oct-12 15:58N 39°34' E 002°38'0 0.0
2017-Oct-12 15:28N 39°34' E 002°38'0 0.0
2017-Oct-12 14:58N 39°34' E 002°38'0 0.0
2017-Oct-12 14:28N 39°34' E 002°38'0 0.0
2017-Oct-12 13:58N 39°34' E 002°38'0 0.0
2017-Oct-12 13:28N 39°34' E 002°38'0 0.0
2017-Oct-12 12:58N 39°34' E 002°38'0 0.0
2017-Oct-12 12:28N 39°34' E 002°38'0 0.0
2017-Oct-12 11:55N 39°34' E 002°38'0 0.0
2017-Oct-12 11:28N 39°34' E 002°38'0 0.0
2017-Oct-12 10:58N 39°34' E 002°38'0 0.0
2017-Oct-12 10:28N 39°34' E 002°38'0 0.0
2017-Oct-12 09:58N 39°34' E 002°38'0 0.0
2017-Oct-12 09:28N 39°34' E 002°38'0 0.0
2017-Oct-12 08:55N 39°34' E 002°38'0 0.0
2017-Oct-12 08:28N 39°34' E 002°38'0 0.0
2017-Oct-12 07:58N 39°34' E 002°38'0 0.0
2017-Oct-12 07:28N 39°34' E 002°38'0 0.0
2017-Oct-12 06:58N 39°34' E 002°38'0 0.0
2017-Oct-12 06:28N 39°34' E 002°38'0 0.0
2017-Oct-12 05:58N 39°34' E 002°38'0 0.0
2017-Oct-12 05:28N 39°34' E 002°38'0 0.0
2017-Oct-12 04:58N 39°34' E 002°38'0 0.0
2017-Oct-12 04:28N 39°34' E 002°38'0 0.0
2017-Oct-12 03:55N 39°34' E 002°38'0 0.0
2017-Oct-12 03:28N 39°34' E 002°38'0 0.0
2017-Oct-12 02:55N 39°34' E 002°38'0 0.0
2017-Oct-12 02:28N 39°34' E 002°38'0 0.0
2017-Oct-12 01:58N 39°34' E 002°38'0 0.0
2017-Oct-12 01:28N 39°34' E 002°38'0 0.0
2017-Oct-12 00:58N 39°34' E 002°38'0 0.0
2017-Oct-12 00:28N 39°34' E 002°38'0 0.0
2017-Oct-11 23:58N 39°34' E 002°38'0 0.0
2017-Oct-11 23:28N 39°34' E 002°38'0 0.0
2017-Oct-11 22:58N 39°34' E 002°38'0 0.0
2017-Oct-11 22:28N 39°34' E 002°38'0 0.0
2017-Oct-11 21:58N 39°34' E 002°38'0 0.0
2017-Oct-11 21:28N 39°34' E 002°38'0 0.0
2017-Oct-11 20:58N 39°34' E 002°38'0 0.0
2017-Oct-11 20:28N 39°34' E 002°38'0 0.0
2017-Oct-11 19:58N 39°34' E 002°38'0 0.0
2017-Oct-11 19:28N 39°34' E 002°38'0 0.0
2017-Oct-11 18:58N 39°34' E 002°38'0 0.0
2017-Oct-11 18:28N 39°34' E 002°38'0 0.0
2017-Oct-11 18:00N 39°34' E 002°38'0 0.0
2017-Oct-11 17:28N 39°34' E 002°38'0 0.0
2017-Oct-11 16:58N 39°34' E 002°38'0 0.0
2017-Oct-10 23:58N 39°34' E 002°38'0 0.0
2017-Oct-10 23:28N 39°34' E 002°38'0 0.0
2017-Oct-10 22:58N 39°34' E 002°38'0 0.0
2017-Oct-10 22:28N 39°34' E 002°38'0 0.0
2017-Oct-10 21:58N 39°34' E 002°38'0 0.0
2017-Oct-10 21:28N 39°34' E 002°38'0 0.0
2017-Oct-10 21:00N 39°34' E 002°38'0 0.0
2017-Oct-10 20:29N 39°34' E 002°38'0 0.0
2017-Oct-10 19:59N 39°34' E 002°38'0 0.0
2017-Oct-10 19:29N 39°34' E 002°38'0 0.0
2017-Oct-10 18:59N 39°34' E 002°38'0 0.0
2017-Oct-10 18:29N 39°34' E 002°38'0 0.0
2017-Oct-10 17:59N 39°34' E 002°38'0 0.0
2017-Oct-10 17:29N 39°34' E 002°38'0 0.0
2017-Oct-10 16:59N 39°34' E 002°38'0 0.0
2017-Oct-10 16:29N 39°34' E 002°38'0 0.0
2017-Oct-10 15:56N 39°34' E 002°38'0 0.0
2017-Oct-10 15:29N 39°34' E 002°38'0 0.0
2017-Oct-10 14:59N 39°34' E 002°38'0 0.0
2017-Oct-10 13:59N 39°34' E 002°38'0 0.0
2017-Oct-10 13:29N 39°34' E 002°38'0 0.0
2017-Oct-10 12:59N 39°34' E 002°38'0 0.0
2017-Oct-10 12:29N 39°34' E 002°38'0 0.0
2017-Oct-10 11:59N 39°34' E 002°38'0 0.0
2017-Oct-10 11:29N 39°34' E 002°38'0 0.0
2017-Oct-10 10:58N 39°34' E 002°38'0 0.0
2017-Oct-10 10:28N 39°34' E 002°38'0 0.0
2017-Oct-10 09:58N 39°34' E 002°38'0 0.0
2017-Oct-10 09:28N 39°34' E 002°38'0 0.0
2017-Oct-10 08:58N 39°34' E 002°38'0 0.0
2017-Oct-10 08:28N 39°34' E 002°38'0 0.0
2017-Oct-10 07:58N 39°34' E 002°38'0 0.0
2017-Oct-10 07:28N 39°34' E 002°38'0 0.0
2017-Oct-10 06:58N 39°34' E 002°38'0 0.0
2017-Oct-10 06:28N 39°34' E 002°38'0 0.0
2017-Oct-10 05:58N 39°34' E 002°38'0 0.0
2017-Oct-10 05:28N 39°34' E 002°38'0 0.0
2017-Oct-10 04:58N 39°34' E 002°38'0 0.0
2017-Oct-10 04:28N 39°34' E 002°38'0 0.0
2017-Oct-10 03:58N 39°34' E 002°38'0 0.0
2017-Oct-10 03:28N 39°34' E 002°38'0 0.0
2017-Oct-10 02:59N 39°34' E 002°38'0 0.0
2017-Oct-10 02:29N 39°34' E 002°38'0 0.0
2017-Oct-10 01:59N 39°34' E 002°38'0 0.0
2017-Oct-10 01:29N 39°34' E 002°38'0 0.0
2017-Oct-10 00:59N 39°34' E 002°38'0 0.0
2017-Oct-10 00:29N 39°34' E 002°38'0 0.0
2017-Oct-09 23:59N 39°34' E 002°38'0 0.0
2017-Oct-09 23:29N 39°34' E 002°38'0 0.0
2017-Oct-09 22:59N 39°34' E 002°38'0 0.0
2017-Oct-09 22:29N 39°34' E 002°38'0 0.0
2017-Oct-09 21:59N 39°34' E 002°38'0 0.0
2017-Oct-09 21:29N 39°34' E 002°38'0 0.0
2017-Oct-09 20:59N 39°34' E 002°38'0 0.0
2017-Oct-09 20:29N 39°34' E 002°38'0 0.0
2017-Oct-09 19:59N 39°34' E 002°38'0 0.0
2017-Oct-09 19:29N 39°34' E 002°38'0 0.0
2017-Oct-09 18:59N 39°34' E 002°38'0 0.0
2017-Oct-09 18:29N 39°34' E 002°38'0 0.0
2017-Oct-09 17:59N 39°34' E 002°38'0 0.0
2017-Oct-09 17:29N 39°34' E 002°38'0 0.0
2017-Oct-09 16:59N 39°34' E 002°38'0 0.0
2017-Oct-09 16:29N 39°34' E 002°38'0 0.0
2017-Oct-09 15:59N 39°34' E 002°38'0 0.0
2017-Oct-09 15:29N 39°34' E 002°38'0 0.0
2017-Oct-09 14:59N 39°34' E 002°38'0 0.0
2017-Oct-09 14:29N 39°34' E 002°38'0 0.0
2017-Oct-09 13:59N 39°34' E 002°38'0 0.0
2017-Oct-09 13:29N 39°34' E 002°38'0 0.0
2017-Oct-09 12:59N 39°34' E 002°38'0 0.0
2017-Oct-09 12:29N 39°34' E 002°38'0 0.0
2017-Oct-09 11:59N 39°34' E 002°38'0 0.0
2017-Oct-09 11:29N 39°34' E 002°38'0 0.0
2017-Oct-09 10:59N 39°34' E 002°38'0 0.0
2017-Oct-09 10:29N 39°34' E 002°38'0 0.0
2017-Oct-09 09:59N 39°34' E 002°38'0 0.0
2017-Oct-09 09:29N 39°34' E 002°38'0 0.1
2017-Oct-09 08:59N 39°34' E 002°38'0 0.2
2017-Oct-09 08:30N 39°34' E 002°38'0 0.2
2017-Oct-09 08:00N 39°34' E 002°38'0 0.0
2017-Oct-09 07:30N 39°34' E 002°38'0 0.0
2017-Oct-09 07:00N 39°34' E 002°38'0 0.0
2017-Oct-09 06:30N 39°34' E 002°38'0 0.0
2017-Oct-09 06:00N 39°34' E 002°38'0 0.0
2017-Oct-09 05:30N 39°34' E 002°38'0 0.0
2017-Oct-09 05:00N 39°34' E 002°38'0 0.0
2017-Oct-09 04:30N 39°34' E 002°38'0 0.0
2017-Oct-09 04:00N 39°34' E 002°38'0 0.0
2017-Oct-09 03:30N 39°34' E 002°38'0 0.0
2017-Oct-09 03:00N 39°34' E 002°38'0 0.0
2017-Oct-09 02:30N 39°34' E 002°38'0 0.0
2017-Oct-09 02:00N 39°34' E 002°38'0 0.0
2017-Oct-09 01:30N 39°34' E 002°38'0 0.0
2017-Oct-09 01:00N 39°34' E 002°38'0 0.0
2017-Oct-09 00:30N 39°34' E 002°38'0 0.0
2017-Oct-09 00:00N 39°34' E 002°38'0 0.0
2017-Oct-08 23:30N 39°34' E 002°38'0 0.0
2017-Oct-08 23:00N 39°34' E 002°38'0 0.0
2017-Oct-08 22:30N 39°34' E 002°38'0 0.0
2017-Oct-08 22:00N 39°34' E 002°38'0 0.0
2017-Oct-08 21:30N 39°34' E 002°38'0 0.0
2017-Oct-08 21:00N 39°34' E 002°38'0 0.0
2017-Oct-08 20:30N 39°34' E 002°38'0 0.0
2017-Oct-08 20:00N 39°34' E 002°38'0 0.0
2017-Oct-08 19:27N 39°34' E 002°38'0 0.0
2017-Oct-08 19:00N 39°34' E 002°38'0 0.0
2017-Oct-08 18:30N 39°34' E 002°38'0 0.0
2017-Oct-08 18:00N 39°34' E 002°38'0 0.0
2017-Oct-08 17:30N 39°34' E 002°38'0 0.0
2017-Oct-08 17:00N 39°34' E 002°38'0 0.0
2017-Oct-08 16:30N 39°34' E 002°38'0 0.0
2017-Oct-08 16:00N 39°34' E 002°38'0 0.0
2017-Oct-08 15:30N 39°34' E 002°38'0 0.0
2017-Oct-08 15:00N 39°34' E 002°38'0 0.0
2017-Oct-08 14:30N 39°34' E 002°38'0 0.0
2017-Oct-08 14:00N 39°34' E 002°38'0 0.0
2017-Oct-08 13:30N 39°34' E 002°38'0 0.0
2017-Oct-08 13:00N 39°34' E 002°38'0 0.0
2017-Oct-08 12:30N 39°34' E 002°38'0 0.0
2017-Oct-08 12:00N 39°34' E 002°38'0 0.0
2017-Oct-08 11:30N 39°34' E 002°38'0 0.0
2017-Oct-08 11:00N 39°34' E 002°38'0 0.0
2017-Oct-08 10:30N 39°34' E 002°38'0 0.0
2017-Oct-08 10:00N 39°34' E 002°38'0 0.0
2017-Oct-08 09:30N 39°34' E 002°38'0 0.0
2017-Oct-08 09:00N 39°34' E 002°38'0 0.0
2017-Oct-08 08:30N 39°34' E 002°38'0 0.0
2017-Oct-08 08:00N 39°34' E 002°38'0 0.0
2017-Oct-08 07:30N 39°34' E 002°38'0 0.0
2017-Oct-08 07:00N 39°34' E 002°38'0 0.0
2017-Oct-08 06:30N 39°34' E 002°38'0 0.0
2017-Oct-08 05:59N 39°34' E 002°38'0 0.0
2017-Oct-08 05:29N 39°34' E 002°38'0 0.0
2017-Oct-08 04:56N 39°34' E 002°38'0 0.0
2017-Oct-08 04:29N 39°34' E 002°38'0 0.0
2017-Oct-08 03:59N 39°34' E 002°38'0 0.0
2017-Oct-08 03:29N 39°34' E 002°38'0 0.0
2017-Oct-08 02:59N 39°34' E 002°38'0 0.0
2017-Oct-08 02:26N 39°34' E 002°38'0 0.0
2017-Oct-08 01:59N 39°34' E 002°38'0 0.0
2017-Oct-08 01:29N 39°34' E 002°38'0 0.0
2017-Oct-08 00:59N 39°34' E 002°38'0 0.0
2017-Oct-08 00:29N 39°34' E 002°38'0 0.0
2017-Oct-07 23:59N 39°34' E 002°38'0 0.0
2017-Oct-07 23:29N 39°34' E 002°38'0 0.0
2017-Oct-07 22:59N 39°34' E 002°38'0 0.0
2017-Oct-07 22:29N 39°34' E 002°38'0 0.0
2017-Oct-07 21:59N 39°34' E 002°38'0 0.0
2017-Oct-07 21:29N 39°34' E 002°38'0 0.0
2017-Oct-07 20:56N 39°34' E 002°38'0 0.0
2017-Oct-07 20:29N 39°34' E 002°38'0 0.0
2017-Oct-07 19:59N 39°34' E 002°38'0 0.0
2017-Oct-07 19:29N 39°34' E 002°38'0 0.0
2017-Oct-07 18:59N 39°34' E 002°38'0 0.0
2017-Oct-07 18:29N 39°34' E 002°38'0 0.0
2017-Oct-07 17:59N 39°34' E 002°38'0 0.0
2017-Oct-07 17:29N 39°34' E 002°38'0 0.0
2017-Oct-07 16:59N 39°34' E 002°38'0 0.0
2017-Oct-07 16:29N 39°34' E 002°38'0 0.0
2017-Oct-07 15:59N 39°34' E 002°38'0 0.0
2017-Oct-07 15:30N 39°34' E 002°38'0 0.0
2017-Oct-07 15:00N 39°34' E 002°38'0 0.0
2017-Oct-07 14:30N 39°34' E 002°38'0 0.0
2017-Oct-07 14:00N 39°34' E 002°38'0 0.0
2017-Oct-07 13:30N 39°34' E 002°38'0 0.0
2017-Oct-07 13:00N 39°34' E 002°38'0 0.0
2017-Oct-07 12:30N 39°34' E 002°38'0 0.0
2017-Oct-07 12:00N 39°34' E 002°38'0 0.0
2017-Oct-07 11:30N 39°34' E 002°38'0 0.0
2017-Oct-07 11:00N 39°34' E 002°38'0 0.0
2017-Oct-07 10:30N 39°34' E 002°38'0 0.0
2017-Oct-07 10:00N 39°34' E 002°38'0 0.0
2017-Oct-07 09:27N 39°34' E 002°38'0 0.0
2017-Oct-07 09:00N 39°34' E 002°38'0 0.0
2017-Oct-07 08:30N 39°34' E 002°38'0 0.0
2017-Oct-07 08:00N 39°34' E 002°38'0 0.0
2017-Oct-07 07:30N 39°34' E 002°38'0 0.0
2017-Oct-07 07:00N 39°34' E 002°38'0 0.0
2017-Oct-07 06:30N 39°34' E 002°38'0 0.0
2017-Oct-07 06:00N 39°34' E 002°38'0 0.0
2017-Oct-07 05:30N 39°34' E 002°38'0 0.0
2017-Oct-07 05:00N 39°34' E 002°38'0 0.0
2017-Oct-07 04:30N 39°34' E 002°38'0 0.0
2017-Oct-07 04:00N 39°34' E 002°38'0 0.0
2017-Oct-07 03:30N 39°34' E 002°38'0 0.0
2017-Oct-07 03:00N 39°34' E 002°38'0 0.0
2017-Oct-07 02:30N 39°34' E 002°38'0 0.0
2017-Oct-07 02:00N 39°34' E 002°38'0 0.0
2017-Oct-07 01:30N 39°34' E 002°38'0 0.0
2017-Oct-07 01:00N 39°34' E 002°38'0 0.0
2017-Oct-07 00:30N 39°34' E 002°38'0 0.0
2017-Oct-07 00:00N 39°34' E 002°38'0 0.0
2017-Oct-06 23:30N 39°34' E 002°38'0 0.0
2017-Oct-06 23:00N 39°34' E 002°38'0 0.0
2017-Oct-06 22:30N 39°34' E 002°38'0 0.0
2017-Oct-06 22:00N 39°34' E 002°38'0 0.0
2017-Oct-06 21:30N 39°34' E 002°38'0 0.0
2017-Oct-06 21:00N 39°34' E 002°38'0 0.0
2017-Oct-06 20:30N 39°34' E 002°38'0 0.0
2017-Oct-06 20:00N 39°34' E 002°38'0 0.0
2017-Oct-06 19:30N 39°34' E 002°38'0 0.0
2017-Oct-06 19:00N 39°34' E 002°38'0 0.0
2017-Oct-06 18:30N 39°34' E 002°38'0 0.0
2017-Oct-06 18:00N 39°34' E 002°38'0 0.0
2017-Oct-06 17:30N 39°34' E 002°38'0 0.0
2017-Oct-06 17:00N 39°34' E 002°38'0 0.0
2017-Oct-06 16:30N 39°34' E 002°38'0 0.0
2017-Oct-06 16:00N 39°34' E 002°38'0 0.0
2017-Oct-06 15:30N 39°34' E 002°38'0 0.0
2017-Oct-06 15:00N 39°34' E 002°38'0 0.0
2017-Oct-06 14:30N 39°34' E 002°38'0 0.0
2017-Oct-06 14:00N 39°34' E 002°38'0 0.0
2017-Oct-06 13:30N 39°34' E 002°38'0 0.0
2017-Oct-06 13:00N 39°34' E 002°38'0 0.0
2017-Oct-06 12:30N 39°34' E 002°38'0 0.0
2017-Oct-06 12:00N 39°34' E 002°38'  
Track history (hours):
 
Tides and Currents Weather Stations Pressure Air Temp Water Temp Dewpoint Dewpoint Depression Visibility Wind Speed Wind Dir Waves Ship Positions

Thea

Last reported at 2017-Oct-16 11:43 UTC. Time now 2017-Oct-19 11:26 UTC.
Position N 38°51' E 001°28'.

Length 25 m.

MMSI: 235111506.

Date/timePositionNaut miles runAvg speedWind from/ knotsBaromVisibWave heightAir tempDewpointWater temp
2017-Oct-16 11:43N 38°51' E 001°28'2 8.2
2017-Oct-16 11:29N 38°53' E 001°29'6 0.3
2017-Oct-15 14:46N 38°58' E 001°33'54 1.9
2017-Oct-14 10:34N 39°27' E 002°31'1 8.0
2017-Oct-14 10:29N 39°28' E 002°32'4 8.0
2017-Oct-14 10:00N 39°30' E 002°35'4 7.5
2017-Oct-14 09:30N 39°33' E 002°38'1 1.4
2017-Oct-14 08:59N 39°34' E 002°38'0 0.0
2017-Oct-14 08:29N 39°34' E 002°38'0 0.0
2017-Oct-14 07:59N 39°34' E 002°38'0 0.0
2017-Oct-14 07:29N 39°34' E 002°38'0 0.0
2017-Oct-14 06:59N 39°34' E 002°38'0 0.0
2017-Oct-14 06:29N 39°34' E 002°38'0 0.0
2017-Oct-14 05:59N 39°34' E 002°38'0 0.0
2017-Oct-14 05:29N 39°34' E 002°38'0 0.0
2017-Oct-14 04:59N 39°34' E 002°38'0 0.0
2017-Oct-14 04:29N 39°34' E 002°38'0 0.0
2017-Oct-14 03:59N 39°34' E 002°38'0 0.0
2017-Oct-14 03:29N 39°34' E 002°38'0 0.0
2017-Oct-14 02:59N 39°34' E 002°38'0 0.0
2017-Oct-14 02:29N 39°34' E 002°38'0 0.0
2017-Oct-14 01:59N 39°34' E 002°38'0 0.0
2017-Oct-14 01:29N 39°34' E 002°38'0 0.0
2017-Oct-14 00:59N 39°34' E 002°38'0 0.0
2017-Oct-14 00:29N 39°34' E 002°38'0 0.0
2017-Oct-13 23:59N 39°34' E 002°38'0 0.0
2017-Oct-13 23:29N 39°34' E 002°38'0 0.0
2017-Oct-13 22:59N 39°34' E 002°38'0 0.0
2017-Oct-13 22:28N 39°34' E 002°38'0 0.0
2017-Oct-13 21:58N 39°34' E 002°38'0 0.0
2017-Oct-13 21:28N 39°34' E 002°38'0 0.0
2017-Oct-13 20:58N 39°34' E 002°38'0 0.0
2017-Oct-13 20:28N 39°34' E 002°38'0 0.0
2017-Oct-13 19:58N 39°34' E 002°38'0 0.0
2017-Oct-13 19:28N 39°34' E 002°38'0 0.0
2017-Oct-13 19:00N 39°34' E 002°38'0 0.0
2017-Oct-13 18:28N 39°34' E 002°38'0 0.0
2017-Oct-13 17:58N 39°34' E 002°38'0 0.0
2017-Oct-13 17:28N 39°34' E 002°38'0 0.0
2017-Oct-13 16:58N 39°34' E 002°38'0 0.0
2017-Oct-13 16:28N 39°34' E 002°38'0 0.0
2017-Oct-13 15:58N 39°34' E 002°38'0 0.0
2017-Oct-13 15:30N 39°34' E 002°38'0 0.0
2017-Oct-13 14:58N 39°34' E 002°38'0 0.0
2017-Oct-13 14:28N 39°34' E 002°38'0 0.0
2017-Oct-13 13:58N 39°34' E 002°38'0 0.0
2017-Oct-13 13:28N 39°34' E 002°38'0 0.0
2017-Oct-13 12:58N 39°34' E 002°38'0 0.0
2017-Oct-13 12:28N 39°34' E 002°38'0 0.0
2017-Oct-13 11:58N 39°34' E 002°38'0 0.0
2017-Oct-13 11:28N 39°34' E 002°38'0 0.0
2017-Oct-13 10:58N 39°34' E 002°38'0 0.0
2017-Oct-13 10:28N 39°34' E 002°38'0 0.0
2017-Oct-13 09:58N 39°34' E 002°38'0 0.0
2017-Oct-13 09:25N 39°34' E 002°38'0 0.0
2017-Oct-13 08:58N 39°34' E 002°38'0 0.0
2017-Oct-13 08:28N 39°34' E 002°38'0 0.0
2017-Oct-13 07:58N 39°34' E 002°38'0 0.0
2017-Oct-13 07:28N 39°34' E 002°38'0 0.0
2017-Oct-13 06:58N 39°34' E 002°38'0 0.0
2017-Oct-13 06:28N 39°34' E 002°38'0 0.0
2017-Oct-13 05:55N 39°34' E 002°38'0 0.0
2017-Oct-13 05:28N 39°34' E 002°38'0 0.0
2017-Oct-13 04:58N 39°34' E 002°38'0 0.0
2017-Oct-13 04:28N 39°34' E 002°38'0 0.0
2017-Oct-13 03:58N 39°34' E 002°38'0 0.0
2017-Oct-13 03:28N 39°34' E 002°38'0 0.0
2017-Oct-13 02:58N 39°34' E 002°38'0 0.0
2017-Oct-13 02:28N 39°34' E 002°38'0 0.0
2017-Oct-13 01:58N 39°34' E 002°38'0 0.0
2017-Oct-13 01:28N 39°34' E 002°38'0 0.0
2017-Oct-13 00:58N 39°34' E 002°38'0 0.0
2017-Oct-13 00:28N 39°34' E 002°38'0 0.0
2017-Oct-12 23:58N 39°34' E 002°38'0 0.0
2017-Oct-12 23:28N 39°34' E 002°38'0 0.0
2017-Oct-12 22:58N 39°34' E 002°38'0 0.0
2017-Oct-12 22:28N 39°34' E 002°38'0 0.0
2017-Oct-12 21:58N 39°34' E 002°38'0 0.0
2017-Oct-12 21:28N 39°34' E 002°38'0 0.0
2017-Oct-12 20:58N 39°34' E 002°38'0 0.0
2017-Oct-12 20:28N 39°34' E 002°38'0 0.0
2017-Oct-12 19:58N 39°34' E 002°38'0 0.0
2017-Oct-12 19:28N 39°34' E 002°38'0 0.0
2017-Oct-12 18:58N 39°34' E 002°38'0 0.0
2017-Oct-12 18:28N 39°34' E 002°38'0 0.0
2017-Oct-12 17:58N 39°34' E 002°38'0 0.0
2017-Oct-12 17:28N 39°34' E 002°38'0 0.0
2017-Oct-12 16:58N 39°34' E 002°38'0 0.0
2017-Oct-12 16:28N 39°34' E 002°38'0 0.0
2017-Oct-12 15:58N 39°34' E 002°38'0 0.0
2017-Oct-12 15:28N 39°34' E 002°38'0 0.0
2017-Oct-12 14:58N 39°34' E 002°38'0 0.0
2017-Oct-12 14:28N 39°34' E 002°38'0 0.0
2017-Oct-12 13:58N 39°34' E 002°38'0 0.0
2017-Oct-12 13:28N 39°34' E 002°38'0 0.0
2017-Oct-12 12:58N 39°34' E 002°38'0 0.0
2017-Oct-12 12:28N 39°34' E 002°38'0 0.0
2017-Oct-12 11:55N 39°34' E 002°38'0 0.0
2017-Oct-12 11:28N 39°34' E 002°38'0 0.0
2017-Oct-12 10:58N 39°34' E 002°38'0 0.0
2017-Oct-12 10:28N 39°34' E 002°38'0 0.0
2017-Oct-12 09:58N 39°34' E 002°38'0 0.0
2017-Oct-12 09:28N 39°34' E 002°38'0 0.0
2017-Oct-12 08:55N 39°34' E 002°38'0 0.0
2017-Oct-12 08:28N 39°34' E 002°38'0 0.0
2017-Oct-12 07:58N 39°34' E 002°38'0 0.0
2017-Oct-12 07:28N 39°34' E 002°38'0 0.0
2017-Oct-12 06:58N 39°34' E 002°38'0 0.0
2017-Oct-12 06:28N 39°34' E 002°38'0 0.0
2017-Oct-12 05:58N 39°34' E 002°38'0 0.0
2017-Oct-12 05:28N 39°34' E 002°38'0 0.0
2017-Oct-12 04:58N 39°34' E 002°38'0 0.0
2017-Oct-12 04:28N 39°34' E 002°38'0 0.0
2017-Oct-12 03:55N 39°34' E 002°38'0 0.0
2017-Oct-12 03:28N 39°34' E 002°38'0 0.0
2017-Oct-12 02:55N 39°34' E 002°38'0 0.0
2017-Oct-12 02:28N 39°34' E 002°38'0 0.0
2017-Oct-12 01:58N 39°34' E 002°38'0 0.0
2017-Oct-12 01:28N 39°34' E 002°38'0 0.0
2017-Oct-12 00:58N 39°34' E 002°38'0 0.0
2017-Oct-12 00:28N 39°34' E 002°38'0 0.0
2017-Oct-11 23:58N 39°34' E 002°38'0 0.0
2017-Oct-11 23:28N 39°34' E 002°38'0 0.0
2017-Oct-11 22:58N 39°34' E 002°38'0 0.0
2017-Oct-11 22:28N 39°34' E 002°38'0 0.0
2017-Oct-11 21:58N 39°34' E 002°38'0 0.0
2017-Oct-11 21:28N 39°34' E 002°38'0 0.0
2017-Oct-11 20:58N 39°34' E 002°38'0 0.0
2017-Oct-11 20:28N 39°34' E 002°38'0 0.0
2017-Oct-11 19:58N 39°34' E 002°38'0 0.0
2017-Oct-11 19:28N 39°34' E 002°38'0 0.0
2017-Oct-11 18:58N 39°34' E 002°38'0 0.0
2017-Oct-11 18:28N 39°34' E 002°38'0 0.0
2017-Oct-11 18:00N 39°34' E 002°38'0 0.0
2017-Oct-11 17:28N 39°34' E 002°38'0 0.0
2017-Oct-11 16:58N 39°34' E 002°38'0 0.0
2017-Oct-10 23:58N 39°34' E 002°38'0 0.0
2017-Oct-10 23:28N 39°34' E 002°38'0 0.0
2017-Oct-10 22:58N 39°34' E 002°38'0 0.0
2017-Oct-10 22:28N 39°34' E 002°38'0 0.0
2017-Oct-10 21:58N 39°34' E 002°38'0 0.0
2017-Oct-10 21:28N 39°34' E 002°38'0 0.0
2017-Oct-10 21:00N 39°34' E 002°38'0 0.0
2017-Oct-10 20:29N 39°34' E 002°38'0 0.0
2017-Oct-10 19:59N 39°34' E 002°38'0 0.0
2017-Oct-10 19:29N 39°34' E 002°38'0 0.0
2017-Oct-10 18:59N 39°34' E 002°38'0 0.0
2017-Oct-10 18:29N 39°34' E 002°38'0 0.0
2017-Oct-10 17:59N 39°34' E 002°38'0 0.0
2017-Oct-10 17:29N 39°34' E 002°38'0 0.0
2017-Oct-10 16:59N 39°34' E 002°38'0 0.0
2017-Oct-10 16:29N 39°34' E 002°38'0 0.0
2017-Oct-10 15:56N 39°34' E 002°38'0 0.0
2017-Oct-10 15:29N 39°34' E 002°38'0 0.0
2017-Oct-10 14:59N 39°34' E 002°38'0 0.0
2017-Oct-10 13:59N 39°34' E 002°38'0 0.0
2017-Oct-10 13:29N 39°34' E 002°38'0 0.0
2017-Oct-10 12:59N 39°34' E 002°38'0 0.0
2017-Oct-10 12:29N 39°34' E 002°38'0 0.0
2017-Oct-10 11:59N 39°34' E 002°38'0 0.0
2017-Oct-10 11:29N 39°34' E 002°38'0 0.0
2017-Oct-10 10:58N 39°34' E 002°38'0 0.0
2017-Oct-10 10:28N 39°34' E 002°38'0 0.0
2017-Oct-10 09:58N 39°34' E 002°38'0 0.0
2017-Oct-10 09:28N 39°34' E 002°38'0 0.0
2017-Oct-10 08:58N 39°34' E 002°38'0 0.0
2017-Oct-10 08:28N 39°34' E 002°38'0 0.0
2017-Oct-10 07:58N 39°34' E 002°38'0 0.0
2017-Oct-10 07:28N 39°34' E 002°38'0 0.0
2017-Oct-10 06:58N 39°34' E 002°38'0 0.0
2017-Oct-10 06:28N 39°34' E 002°38'0 0.0
2017-Oct-10 05:58N 39°34' E 002°38'0 0.0
2017-Oct-10 05:28N 39°34' E 002°38'0 0.0
2017-Oct-10 04:58N 39°34' E 002°38'0 0.0
2017-Oct-10 04:28N 39°34' E 002°38'0 0.0
2017-Oct-10 03:58N 39°34' E 002°38'0 0.0
2017-Oct-10 03:28N 39°34' E 002°38'0 0.0
2017-Oct-10 02:59N 39°34' E 002°38'0 0.0
2017-Oct-10 02:29N 39°34' E 002°38'0 0.0
2017-Oct-10 01:59N 39°34' E 002°38'0 0.0
2017-Oct-10 01:29N 39°34' E 002°38'0 0.0
2017-Oct-10 00:59N 39°34' E 002°38'0 0.0
2017-Oct-10 00:29N 39°34' E 002°38'0 0.0
2017-Oct-09 23:59N 39°34' E 002°38'0 0.0
2017-Oct-09 23:29N 39°34' E 002°38'0 0.0
2017-Oct-09 22:59N 39°34' E 002°38'0 0.0
2017-Oct-09 22:29N 39°34' E 002°38'0 0.0
2017-Oct-09 21:59N 39°34' E 002°38'0 0.0
2017-Oct-09 21:29N 39°34' E 002°38'0 0.0
2017-Oct-09 20:59N 39°34' E 002°38'0 0.0
2017-Oct-09 20:29N 39°34' E 002°38'0 0.0
2017-Oct-09 19:59N 39°34' E 002°38'0 0.0
2017-Oct-09 19:29N 39°34' E 002°38'0 0.0
2017-Oct-09 18:59N 39°34' E 002°38'0 0.0
2017-Oct-09 18:29N 39°34' E 002°38'0 0.0
2017-Oct-09 17:59N 39°34' E 002°38'0 0.0
2017-Oct-09 17:29N 39°34' E 002°38'0 0.0
2017-Oct-09 16:59N 39°34' E 002°38'0 0.0
2017-Oct-09 16:29N 39°34' E 002°38'0 0.0
2017-Oct-09 15:59N 39°34' E 002°38'0 0.0
2017-Oct-09 15:29N 39°34' E 002°38'0 0.0
2017-Oct-09 14:59N 39°34' E 002°38'0 0.0
2017-Oct-09 14:29N 39°34' E 002°38'0 0.0
2017-Oct-09 13:59N 39°34' E 002°38'0 0.0
2017-Oct-09 13:29N 39°34' E 002°38'0 0.0
2017-Oct-09 12:59N 39°34' E 002°38'0 0.0
2017-Oct-09 12:29N 39°34' E 002°38'0 0.0
2017-Oct-09 11:59N 39°34' E 002°38'0 0.0
2017-Oct-09 11:29N 39°34' E 002°38'0 0.0
2017-Oct-09 10:59N 39°34' E 002°38'0 0.0
2017-Oct-09 10:29N 39°34' E 002°38'0 0.0
2017-Oct-09 09:59N 39°34' E 002°38'0 0.0
2017-Oct-09 09:29N 39°34' E 002°38'0 0.1
2017-Oct-09 08:59N 39°34' E 002°38'0 0.2
2017-Oct-09 08:30N 39°34' E 002°38'0 0.2
2017-Oct-09 08:00N 39°34' E 002°38'0 0.0
2017-Oct-09 07:30N 39°34' E 002°38'0 0.0
2017-Oct-09 07:00N 39°34' E 002°38'0 0.0
2017-Oct-09 06:30N 39°34' E 002°38'0 0.0
2017-Oct-09 06:00N 39°34' E 002°38'0 0.0
2017-Oct-09 05:30N 39°34' E 002°38'0 0.0
2017-Oct-09 05:00N 39°34' E 002°38'0 0.0
2017-Oct-09 04:30N 39°34' E 002°38'0 0.0
2017-Oct-09 04:00N 39°34' E 002°38'0 0.0
2017-Oct-09 03:30N 39°34' E 002°38'0 0.0
2017-Oct-09 03:00N 39°34' E 002°38'0 0.0
2017-Oct-09 02:30N 39°34' E 002°38'0 0.0
2017-Oct-09 02:00N 39°34' E 002°38'0 0.0
2017-Oct-09 01:30N 39°34' E 002°38'0 0.0
2017-Oct-09 01:00N 39°34' E 002°38'0 0.0
2017-Oct-09 00:30N 39°34' E 002°38'0 0.0
2017-Oct-09 00:00N 39°34' E 002°38'0 0.0
2017-Oct-08 23:30N 39°34' E 002°38'0 0.0
2017-Oct-08 23:00N 39°34' E 002°38'0 0.0
2017-Oct-08 22:30N 39°34' E 002°38'0 0.0
2017-Oct-08 22:00N 39°34' E 002°38'0 0.0
2017-Oct-08 21:30N 39°34' E 002°38'0 0.0
2017-Oct-08 21:00N 39°34' E 002°38'0 0.0
2017-Oct-08 20:30N 39°34' E 002°38'0 0.0
2017-Oct-08 20:00N 39°34' E 002°38'0 0.0
2017-Oct-08 19:27N 39°34' E 002°38'0 0.0
2017-Oct-08 19:00N 39°34' E 002°38'0 0.0
2017-Oct-08 18:30N 39°34' E 002°38'0 0.0
2017-Oct-08 18:00N 39°34' E 002°38'0 0.0
2017-Oct-08 17:30N 39°34' E 002°38'0 0.0
2017-Oct-08 17:00N 39°34' E 002°38'0 0.0
2017-Oct-08 16:30N 39°34' E 002°38'0 0.0
2017-Oct-08 16:00N 39°34' E 002°38'0 0.0
2017-Oct-08 15:30N 39°34' E 002°38'0 0.0
2017-Oct-08 15:00N 39°34' E 002°38'0 0.0
2017-Oct-08 14:30N 39°34' E 002°38'0 0.0
2017-Oct-08 14:00N 39°34' E 002°38'0 0.0
2017-Oct-08 13:30N 39°34' E 002°38'0 0.0
2017-Oct-08 13:00N 39°34' E 002°38'0 0.0
2017-Oct-08 12:30N 39°34' E 002°38'0 0.0
2017-Oct-08 12:00N 39°34' E 002°38'0 0.0
2017-Oct-08 11:30N 39°34' E 002°38'0 0.0
2017-Oct-08 11:00N 39°34' E 002°38'0 0.0
2017-Oct-08 10:30N 39°34' E 002°38'0 0.0
2017-Oct-08 10:00N 39°34' E 002°38'0 0.0
2017-Oct-08 09:30N 39°34' E 002°38'0 0.0
2017-Oct-08 09:00N 39°34' E 002°38'0 0.0
2017-Oct-08 08:30N 39°34' E 002°38'0 0.0
2017-Oct-08 08:00N 39°34' E 002°38'0 0.0
2017-Oct-08 07:30N 39°34' E 002°38'0 0.0
2017-Oct-08 07:00N 39°34' E 002°38'0 0.0
2017-Oct-08 06:30N 39°34' E 002°38'0 0.0
2017-Oct-08 05:59N 39°34' E 002°38'0 0.0
2017-Oct-08 05:29N 39°34' E 002°38'0 0.0
2017-Oct-08 04:56N 39°34' E 002°38'0 0.0
2017-Oct-08 04:29N 39°34' E 002°38'0 0.0
2017-Oct-08 03:59N 39°34' E 002°38'0 0.0
2017-Oct-08 03:29N 39°34' E 002°38'0 0.0
2017-Oct-08 02:59N 39°34' E 002°38'0 0.0
2017-Oct-08 02:26N 39°34' E 002°38'0 0.0
2017-Oct-08 01:59N 39°34' E 002°38'0 0.0
2017-Oct-08 01:29N 39°34' E 002°38'0 0.0
2017-Oct-08 00:59N 39°34' E 002°38'0 0.0
2017-Oct-08 00:29N 39°34' E 002°38'0 0.0
2017-Oct-07 23:59N 39°34' E 002°38'0 0.0
2017-Oct-07 23:29N 39°34' E 002°38'0 0.0
2017-Oct-07 22:59N 39°34' E 002°38'0 0.0
2017-Oct-07 22:29N 39°34' E 002°38'0 0.0
2017-Oct-07 21:59N 39°34' E 002°38'0 0.0
2017-Oct-07 21:29N 39°34' E 002°38'0 0.0
2017-Oct-07 20:56N 39°34' E 002°38'0 0.0
2017-Oct-07 20:29N 39°34' E 002°38'0 0.0
2017-Oct-07 19:59N 39°34' E 002°38'0 0.0
2017-Oct-07 19:29N 39°34' E 002°38'0 0.0
2017-Oct-07 18:59N 39°34' E 002°38'0 0.0
2017-Oct-07 18:29N 39°34' E 002°38'0 0.0
2017-Oct-07 17:59N 39°34' E 002°38'0 0.0
2017-Oct-07 17:29N 39°34' E 002°38'0 0.0
2017-Oct-07 16:59N 39°34' E 002°38'0 0.0
2017-Oct-07 16:29N 39°34' E 002°38'0 0.0
2017-Oct-07 15:59N 39°34' E 002°38'0 0.0
2017-Oct-07 15:30N 39°34' E 002°38'0 0.0
2017-Oct-07 15:00N 39°34' E 002°38'0 0.0
2017-Oct-07 14:30N 39°34' E 002°38'0 0.0
2017-Oct-07 14:00N 39°34' E 002°38'0 0.0
2017-Oct-07 13:30N 39°34' E 002°38'0 0.0
2017-Oct-07 13:00N 39°34' E 002°38'0 0.0
2017-Oct-07 12:30N 39°34' E 002°38'0 0.0
2017-Oct-07 12:00N 39°34' E 002°38'0 0.0
2017-Oct-07 11:30N 39°34' E 002°38'0 0.0
2017-Oct-07 11:00N 39°34' E 002°38'0 0.0
2017-Oct-07 10:30N 39°34' E 002°38'0 0.0
2017-Oct-07 10:00N 39°34' E 002°38'0 0.0
2017-Oct-07 09:27N 39°34' E 002°38'0 0.0
2017-Oct-07 09:00N 39°34' E 002°38'0 0.0
2017-Oct-07 08:30N 39°34' E 002°38'0 0.0
2017-Oct-07 08:00N 39°34' E 002°38'0 0.0
2017-Oct-07 07:30N 39°34' E 002°38'0 0.0
2017-Oct-07 07:00N 39°34' E 002°38'0 0.0
2017-Oct-07 06:30N 39°34' E 002°38'0 0.0
2017-Oct-07 06:00N 39°34' E 002°38'0 0.0
2017-Oct-07 05:30N 39°34' E 002°38'0 0.0
2017-Oct-07 05:00N 39°34' E 002°38'0 0.0
2017-Oct-07 04:30N 39°34' E 002°38'0 0.0
2017-Oct-07 04:00N 39°34' E 002°38'0 0.0
2017-Oct-07 03:30N 39°34' E 002°38'0 0.0
2017-Oct-07 03:00N 39°34' E 002°38'0 0.0
2017-Oct-07 02:30N 39°34' E 002°38'0 0.0
2017-Oct-07 02:00N 39°34' E 002°38'0 0.0
2017-Oct-07 01:30N 39°34' E 002°38'0 0.0
2017-Oct-07 01:00N 39°34' E 002°38'0 0.0
2017-Oct-07 00:30N 39°34' E 002°38'0 0.0
2017-Oct-07 00:00N 39°34' E 002°38'0 0.0
2017-Oct-06 23:30N 39°34' E 002°38'0 0.0
2017-Oct-06 23:00N 39°34' E 002°38'0 0.0
2017-Oct-06 22:30N 39°34' E 002°38'0 0.0
2017-Oct-06 22:00N 39°34' E 002°38'0 0.0
2017-Oct-06 21:30N 39°34' E 002°38'0 0.0
2017-Oct-06 21:00N 39°34' E 002°38'0 0.0
2017-Oct-06 20:30N 39°34' E 002°38'0 0.0
2017-Oct-06 20:00N 39°34' E 002°38'0 0.0
2017-Oct-06 19:30N 39°34' E 002°38'0 0.0
2017-Oct-06 19:00N 39°34' E 002°38'0 0.0
2017-Oct-06 18:30N 39°34' E 002°38'0 0.0
2017-Oct-06 18:00N 39°34' E 002°38'0 0.0
2017-Oct-06 17:30N 39°34' E 002°38'0 0.0
2017-Oct-06 17:00N 39°34' E 002°38'0 0.0
2017-Oct-06 16:30N 39°34' E 002°38'0 0.0
2017-Oct-06 16:00N 39°34' E 002°38'0 0.0
2017-Oct-06 15:30N 39°34' E 002°38'0 0.0
2017-Oct-06 15:00N 39°34' E 002°38'0 0.0
2017-Oct-06 14:30N 39°34' E 002°38'0 0.0
2017-Oct-06 14:00N 39°34' E 002°38'0 0.0
2017-Oct-06 13:30N 39°34' E 002°38'0 0.0
2017-Oct-06 13:00N 39°34' E 002°38'0 0.0
2017-Oct-06 12:30N 39°34' E 002°38'0 0.0
2017-Oct-06 12:00N 39°34' E 002°38'  

Dump ship's entire track history